MCO weather

Orlando International Airport
Orlando, Florida, United States

Public forecast

Using degrees Fahrenheit for public forecast. Weather courtesy of forecast.io.

METAR (pilot weather report)

Retrieved 2018/08/20 02:53 UTC (44 minutes ago):

KMCO 200253Z 18004KT 10SM FEW100 OVC250 24/23 A3008 RMK AO2 SLP184 60000 T02390228 56014 $

TAF (pilot weather forecast)

Forecast is more than 12 hours old.

Retrieved 2018/08/19 00:51 UTC (1 day ago):

TAF KMCO 192348Z 2000/2106 19008KT P6SM VCTS SCT030CB BKN080 TEMPO 2000/2001 5SM -TSRA FM200200 VRB04KT P6SM SCT080 OVC200 FM201400 16006KT P6SM SCT025 FM201900 15008KT P6SM VCTS SCT040CB TEMPO 2020/2023 3SM TSRA BKN030CB FM210100 16003KT P6SM VCSH SCT050 BKN100